Time;durP1;ratioP1;P1;durP2;ratioP2;P2;SDS_P1;SDS_P2;PMS_P1;PMS_P2;Temp;Humidity;BMP_temperature;BMP_pressure;BME280_temperature;BME280_humidity;BME280_pressure;Samples;Min_cycle;Max_cycle;Signal;HPM_P1;HPM_P2
2023/09/14 00:00:11;;;;;;;3.30;2.72;;;;;;;18.50;100.00;100688.21;4996903;56;1140665;-75
2023/09/14 00:05:18;;;;;;;3.80;3.42;;;;;;;18.47;100.00;100682.71;5034980;56;1140773;-75
2023/09/14 00:10:25;;;;;;;3.15;2.85;;;;;;;18.46;100.00;100685.55;4911247;58;1140766;-74
2023/09/14 00:15:31;;;;;;;3.15;2.85;;;;;;;18.43;100.00;100693.91;4946046;56;1140704;-75
2023/09/14 00:20:37;;;;;;;5.10;2.98;;;;;;;18.43;100.00;100688.55;5035767;56;1140764;-74
2023/09/14 00:25:42;;;;;;;6.37;3.27;;;;;;;18.41;100.00;100691.89;5016858;56;1140753;-74
2023/09/14 00:30:58;;;;;;;2.77;2.60;;;;;;;18.36;100.00;100686.19;5013763;57;1140713;-74
2023/09/14 00:36:00;;;;;;;6.47;2.60;;;;;;;18.27;100.00;100693.38;5129785;56;1140593;-75
2023/09/14 00:41:06;;;;;;;2.60;2.40;;;;;;;18.22;100.00;100694.36;5108019;56;1140712;-74
2023/09/14 00:46:11;;;;;;;2.58;2.35;;;;;;;18.10;100.00;100698.36;5091541;56;1141261;-74
2023/09/14 00:51:17;;;;;;;2.52;1.67;;;;;;;18.08;100.00;100703.03;4914285;57;1141260;-74
2023/09/14 00:56:23;;;;;;;1.82;1.40;;;;;;;18.06;100.00;100710.38;4933194;57;1141084;-75
2023/09/14 01:01:31;;;;;;;1.43;1.40;;;;;;;18.06;100.00;100718.41;4957839;58;1141044;-75
2023/09/14 01:06:36;;;;;;;1.52;1.45;;;;;;;18.04;100.00;100736.47;4976907;57;1140846;-75
2023/09/14 01:11:41;;;;;;;9.08;1.77;;;;;;;18.01;100.00;100746.19;4971675;57;1140982;-74
2023/09/14 01:16:55;;;;;;;1.35;1.15;;;;;;;17.92;100.00;100752.83;4934581;57;1140882;-75
2023/09/14 01:22:16;;;;;;;2.75;1.32;;;;;;;17.90;100.00;100757.49;4918296;57;1140772;-75
2023/09/14 01:27:22;;;;;;;1.30;1.20;;;;;;;17.89;100.00;100766.52;5130266;55;1140850;-75
2023/09/14 01:32:29;;;;;;;1.62;1.10;;;;;;;17.88;100.00;100762.16;5079766;56;1150417;-74
2023/09/14 01:37:35;;;;;;;1.07;1.00;;;;;;;17.80;100.00;100767.48;5015223;57;1140700;-75
2023/09/14 01:42:41;;;;;;;1.40;1.30;;;;;;;17.68;100.00;100776.80;5018323;57;1141207;-75
2023/09/14 01:47:49;;;;;;;3.05;1.20;;;;;;;17.62;100.00;100782.73;5013464;57;1140837;-75
2023/09/14 01:52:56;;;;;;;1.25;1.07;;;;;;;17.52;100.00;100786.86;5015252;57;1140752;-75
2023/09/14 01:58:02;;;;;;;2.72;1.00;;;;;;;17.47;100.00;100790.99;5079206;55;1140885;-75
2023/09/14 02:03:08;;;;;;;1.02;0.95;;;;;;;17.46;100.00;100795.50;4995576;57;1140871;-74
2023/09/14 02:08:15;;;;;;;1.22;1.08;;;;;;;17.41;100.00;100791.64;5098326;56;1141099;-74
2023/09/14 02:13:21;;;;;;;2.60;1.30;;;;;;;17.42;100.00;100798.63;5006609;57;1140813;-76
2023/09/14 02:18:27;;;;;;;1.80;1.13;;;;;;;17.39;100.00;100801.15;5079086;56;1140938;-74
2023/09/14 02:23:33;;;;;;;1.12;0.95;;;;;;;17.34;100.00;100798.59;5009445;57;1187257;-75
2023/09/14 02:28:38;;;;;;;2.33;1.17;;;;;;;17.26;100.00;100811.41;5016389;57;1141063;-75
2023/09/14 02:33:44;;;;;;;1.33;1.20;;;;;;;17.04;100.00;100812.72;4993961;57;1246707;-74
2023/09/14 02:38:50;;;;;;;3.35;1.12;;;;;;;16.85;100.00;100816.37;4996190;56;1140847;-75
2023/09/14 02:43:55;;;;;;;2.73;1.40;;;;;;;16.64;100.00;100820.34;5021354;56;1140978;-75
2023/09/14 02:49:02;;;;;;;1.47;1.37;;;;;;;16.44;100.00;100828.44;5042998;56;1140636;-74
2023/09/14 02:54:09;;;;;;;2.00;1.10;;;;;;;16.33;100.00;100831.31;4993368;56;1163360;-75
2023/09/14 02:59:16;;;;;;;1.97;1.10;;;;;;;16.29;100.00;100835.75;5013978;56;1140735;-75
2023/09/14 03:04:22;;;;;;;1.35;1.30;;;;;;;16.23;100.00;100847.00;4947891;57;1150097;-75
2023/09/14 03:09:28;;;;;;;2.83;1.07;;;;;;;16.15;100.00;100858.42;5020046;55;1140727;-75
2023/09/14 03:14:34;;;;;;;3.10;1.30;;;;;;;16.06;100.00;100860.13;5079101;56;1140749;-74
2023/09/14 03:19:39;;;;;;;9.63;1.67;;;;;;;15.96;100.00;100867.33;5101464;56;1231870;-74
2023/09/14 03:24:45;;;;;;;4.93;2.07;;;;;;;15.92;100.00;100873.94;5072124;55;1140915;-74
2023/09/14 03:29:51;;;;;;;4.37;1.50;;;;;;;15.87;100.00;100875.38;5097299;55;1140798;-73
2023/09/14 03:34:57;;;;;;;5.73;1.73;;;;;;;15.90;100.00;100875.06;5034053;57;1140797;-74
2023/09/14 03:40:05;;;;;;;8.30;1.93;;;;;;;15.91;100.00;100872.74;5098858;56;1140837;-73
2023/09/14 03:45:10;;;;;;;5.23;1.80;;;;;;;15.89;100.00;100886.22;4977974;56;1224878;-74
2023/09/14 03:50:16;;;;;;;3.57;1.63;;;;;;;15.83;100.00;100884.16;4953075;57;1141480;-74
2023/09/14 03:55:22;;;;;;;5.17;2.17;;;;;;;15.88;100.00;100887.73;4949136;57;1171513;-73
2023/09/14 04:00:28;;;;;;;7.33;2.63;;;;;;;15.87;100.00;100898.89;5097381;56;1243928;-73
2023/09/14 04:05:33;;;;;;;9.30;2.90;;;;;;;15.90;100.00;100908.41;5097580;56;1225709;-74
2023/09/14 04:10:43;;;;;;;5.90;3.40;;;;;;;15.79;100.00;100914.75;5117223;56;1244528;-73
2023/09/14 04:15:48;;;;;;;6.27;2.63;;;;;;;15.71;100.00;100918.64;5097173;56;1236265;-74
2023/09/14 04:20:55;;;;;;;7.90;3.10;;;;;;;15.65;100.00;100922.70;5096985;56;1237022;-72
2023/09/14 04:26:03;;;;;;;6.30;2.97;;;;;;;15.57;100.00;100924.41;5185713;55;1140641;-72
2023/09/14 04:31:11;;;;;;;8.37;3.13;;;;;;;15.48;100.00;100928.22;5089324;56;1246903;-72
2023/09/14 04:36:17;;;;;;;7.77;4.17;;;;;;;15.48;100.00;100929.55;5181713;55;1241507;-72
2023/09/14 04:41:24;;;;;;;3.97;2.70;;;;;;;15.53;100.00;100937.63;5068542;57;1141600;-75
2023/09/14 04:46:30;;;;;;;4.83;3.40;;;;;;;15.47;100.00;100931.86;5027960;56;1249142;-72
2023/09/14 04:51:36;;;;;;;7.75;4.15;;;;;;;15.43;100.00;100937.12;4995838;57;1231606;-72
2023/09/14 04:56:41;;;;;;;4.37;3.85;;;;;;;15.42;100.00;100944.80;5013277;57;1243752;-72
2023/09/14 05:01:47;;;;;;;7.87;3.77;;;;;;;15.37;100.00;100947.02;5116910;56;1243848;-73
2023/09/14 05:06:53;;;;;;;6.00;4.03;;;;;;;15.40;100.00;100947.24;5098820;56;1140757;-73
2023/09/14 05:11:59;;;;;;;6.63;4.43;;;;;;;15.39;100.00;100952.22;5096793;56;1231395;-73
2023/09/14 05:17:05;;;;;;;6.77;4.33;;;;;;;15.40;100.00;100952.08;5097999;56;1140783;-73
2023/09/14 05:22:12;;;;;;;5.87;4.80;;;;;;;15.41;100.00;100955.10;5026259;56;1229917;-73
2023/09/14 05:27:18;;;;;;;8.90;5.83;;;;;;;15.37;100.00;100960.84;5011700;56;1140811;-73
2023/09/14 05:32:24;;;;;;;13.83;5.27;;;;;;;15.36;100.00;100963.15;5128996;56;1141059;-74
2023/09/14 05:37:30;;;;;;;9.58;4.67;;;;;;;15.38;100.00;100974.52;5041332;56;1143056;-73
2023/09/14 05:42:42;;;;;;;12.95;5.00;;;;;;;15.42;100.00;100983.44;5184744;55;1140765;-73
2023/09/14 05:47:44;;;;;;;9.00;4.75;;;;;;;15.47;100.00;100987.84;5034933;56;1242398;-72
2023/09/14 05:52:50;;;;;;;8.00;5.80;;;;;;;15.59;100.00;100997.06;5111318;56;1140907;-73
2023/09/14 05:57:56;;;;;;;6.87;5.83;;;;;;;15.59;100.00;101001.06;4974489;57;1160647;-73
2023/09/14 06:03:02;;;;;;;7.77;5.07;;;;;;;15.60;100.00;100997.42;4944606;57;1140818;-73
2023/09/14 06:08:08;;;;;;;7.10;4.37;;;;;;;15.69;100.00;101005.94;5044954;56;1141057;-73
2023/09/14 06:13:14;;;;;;;8.43;5.30;;;;;;;15.75;100.00;100999.53;5025223;56;1141133;-73
2023/09/14 06:18:19;;;;;;;7.03;4.93;;;;;;;15.82;100.00;101010.49;5024771;57;1141057;-73
2023/09/14 06:23:26;;;;;;;6.58;4.64;;;;;;;15.87;100.00;101016.26;5061098;56;1141216;-74
2023/09/14 06:28:32;;;;;;;8.28;4.72;;;;;;;15.78;100.00;101023.26;5086990;56;1140759;-73
2023/09/14 06:33:38;;;;;;;9.68;5.40;;;;;;;15.77;100.00;101024.73;5078494;56;1140844;-73
2023/09/14 06:38:44;;;;;;;8.67;5.20;;;;;;;15.77;100.00;101027.39;5079490;56;1141205;-73
2023/09/14 06:43:50;;;;;;;9.13;5.20;;;;;;;15.75;100.00;101033.36;5049573;56;1141034;-73
2023/09/14 06:48:56;;;;;;;7.87;5.73;;;;;;;15.76;100.00;101039.05;5078938;56;1140813;-73
2023/09/14 06:54:01;;;;;;;8.77;6.07;;;;;;;15.80;100.00;101047.13;5001688;56;1140929;-73
2023/09/14 06:59:07;;;;;;;8.67;5.50;;;;;;;15.80;100.00;101047.13;5015510;56;1140735;-73
2023/09/14 07:04:13;;;;;;;8.33;5.57;;;;;;;15.82;100.00;101052.67;4995948;56;1140790;-72
2023/09/14 07:09:18;;;;;;;9.90;6.73;;;;;;;15.88;100.00;101053.11;4996057;56;1140703;-73
2023/09/14 07:14:24;;;;;;;9.17;6.67;;;;;;;15.89;100.00;101055.61;5001801;56;1140962;-74
2023/09/14 07:19:31;;;;;;;10.93;6.40;;;;;;;15.94;100.00;101064.53;5000764;57;1140811;-73
2023/09/14 07:24:37;;;;;;;7.70;4.97;;;;;;;16.17;100.00;101076.13;4966895;56;1143234;-73
2023/09/14 07:29:42;;;;;;;10.15;6.10;;;;;;;16.60;100.00;101071.28;5091203;56;1141151;-73
2023/09/14 07:34:48;;;;;;;13.23;7.40;;;;;;;16.93;100.00;101071.30;5118016;56;1142976;-73
2023/09/14 07:39:53;;;;;;;9.87;6.17;;;;;;;17.08;100.00;101077.84;5060634;56;1142943;-72
2023/09/14 07:44:59;;;;;;;7.87;5.00;;;;;;;17.07;100.00;101081.50;5092770;56;1140786;-73
2023/09/14 07:50:05;;;;;;;9.20;5.43;;;;;;;17.36;100.00;101078.68;4963592;56;1140642;-73
2023/09/14 07:55:11;;;;;;;11.27;6.73;;;;;;;17.62;100.00;101084.15;4917633;57;1140797;-73
2023/09/14 08:00:17;;;;;;;8.53;5.40;;;;;;;17.60;100.00;101093.66;4932003;58;1143004;-73
2023/09/14 08:05:22;;;;;;;6.50;5.20;;;;;;;17.71;100.00;101100.19;5026290;57;1140840;-73
2023/09/14 08:10:28;;;;;;;5.90;5.15;;;;;;;17.63;100.00;101100.55;5084112;56;1140836;-73
2023/09/14 08:15:34;;;;;;;7.80;6.37;;;;;;;17.58;100.00;101099.16;5004754;55;1140824;-73
2023/09/14 08:20:46;;;;;;;7.67;5.25;;;;;;;17.66;100.00;101098.45;5118034;56;1140838;-73
2023/09/14 08:25:49;;;;;;;11.15;5.37;;;;;;;17.97;100.00;101104.29;4998032;57;1140741;-73
2023/09/14 08:30:54;;;;;;;9.85;4.67;;;;;;;18.12;100.00;101111.29;5064512;56;1143335;-73
2023/09/14 08:36:00;;;;;;;11.53;3.70;;;;;;;18.20;100.00;101107.33;5022056;57;1140983;-73
2023/09/14 08:41:22;;;;;;;4.47;3.25;;;;;;;18.37;100.00;101110.98;4991676;56;1142659;-73
2023/09/14 08:46:29;;;;;;;8.40;3.80;;;;;;;18.84;100.00;101113.72;5012989;56;1140640;-74
2023/09/14 08:51:38;;;;;;;3.40;3.07;;;;;;;18.96;100.00;101115.63;4993806;57;1140708;-73
2023/09/14 08:56:44;;;;;;;5.08;3.00;;;;;;;18.90;100.00;101120.30;4934885;57;1141081;-73
2023/09/14 09:01:50;;;;;;;4.80;3.80;;;;;;;19.10;100.00;101123.57;4915877;56;1140915;-73
2023/09/14 09:06:56;;;;;;;4.90;3.27;;;;;;;19.19;100.00;101122.63;4915837;57;1140991;-73
2023/09/14 09:12:02;;;;;;;8.10;3.12;;;;;;;18.94;100.00;101131.05;4934862;56;1140880;-73
2023/09/14 09:17:07;;;;;;;8.58;3.00;;;;;;;19.02;100.00;101127.06;4915580;56;1140935;-74
2023/09/14 09:22:15;;;;;;;6.90;3.30;;;;;;;19.18;100.00;101129.00;4917671;56;1140908;-74
2023/09/14 09:27:29;;;;;;;3.50;1.95;;;;;;;19.37;100.00;101129.27;5014432;57;1140965;-75
2023/09/14 09:32:36;;;;;;;2.35;2.12;;;;;;;19.50;100.00;101133.70;4993947;56;1141177;-73
2023/09/14 09:37:42;;;;;;;7.28;2.92;;;;;;;19.85;100.00;101132.15;5008169;57;1141069;-73
2023/09/14 09:42:48;;;;;;;2.35;2.15;;;;;;;20.02;100.00;101132.48;5098966;56;1140923;-74
2023/09/14 09:47:55;;;;;;;1.98;1.75;;;;;;;20.16;100.00;101123.47;5003897;57;1140747;-74
2023/09/14 09:53:02;;;;;;;4.87;3.33;;;;;;;20.42;100.00;101126.87;5008911;57;1140739;-73
2023/09/14 09:58:09;;;;;;;3.17;2.25;;;;;;;20.80;100.00;101123.12;5081443;56;1141018;-74
2023/09/14 10:03:18;;;;;;;4.30;2.30;;;;;;;20.60;100.00;101132.91;5035826;56;1140916;-74
2023/09/14 10:08:24;;;;;;;3.02;2.17;;;;;;;20.48;100.00;101137.42;5056801;56;1141160;-73
2023/09/14 10:13:30;;;;;;;5.10;2.33;;;;;;;20.65;100.00;101134.56;4992331;56;1141123;-75
2023/09/14 10:18:36;;;;;;;3.95;1.85;;;;;;;20.41;100.00;101125.69;4976674;57;1140888;-73
2023/09/14 10:23:43;;;;;;;2.58;2.05;;;;;;;20.52;100.00;101118.12;4941824;57;1140936;-74
2023/09/14 10:28:49;;;;;;;1.80;1.70;;;;;;;20.96;100.00;101115.86;5005638;56;1140988;-74
2023/09/14 10:33:59;;;;;;;3.22;2.22;;;;;;;20.93;100.00;101127.49;4985890;57;1140813;-73
2023/09/14 10:39:06;;;;;;;2.58;1.75;;;;;;;20.67;100.00;101121.80;5061446;56;1140732;-74
2023/09/14 10:44:11;;;;;;;3.27;2.37;;;;;;;20.67;100.00;101127.68;5102626;56;1140908;-74
2023/09/14 10:49:17;;;;;;;5.70;2.83;;;;;;;20.77;100.00;101127.02;5144892;56;1140673;-73
2023/09/14 10:54:30;;;;;;;5.62;2.30;;;;;;;20.72;100.00;101126.67;5044824;56;1140702;-74
2023/09/14 10:59:53;;;;;;;2.47;2.27;;;;;;;20.52;100.00;101133.41;5091777;56;1140676;-73
2023/09/14 11:05:19;;;;;;;2.35;1.98;;;;;;;20.90;100.00;101129.17;5109642;56;1140720;-73
2023/09/14 11:10:27;;;;;;;5.06;2.00;;;;;;;21.20;100.00;101125.77;5120179;55;1140797;-76
2023/09/14 11:15:34;;;;;;;2.58;1.92;;;;;;;21.10;100.00;101136.33;5028623;57;1140977;-73
2023/09/14 11:20:40;;;;;;;5.37;1.80;;;;;;;20.85;100.00;101134.21;5042094;56;1140854;-75
2023/09/14 11:25:46;;;;;;;2.80;2.22;;;;;;;20.96;100.00;101129.81;5126856;56;1141138;-74
2023/09/14 11:30:52;;;;;;;2.33;1.60;;;;;;;21.25;100.00;101129.26;5147851;56;1140912;-73
2023/09/14 11:35:58;;;;;;;3.27;2.17;;;;;;;21.52;100.00;101129.34;5025448;56;1141076;-73
2023/09/14 11:41:03;;;;;;;2.90;2.22;;;;;;;21.63;100.00;101129.78;5024185;56;1140712;-74
2023/09/14 11:46:12;;;;;;;3.60;2.62;;;;;;;21.66;100.00;101125.91;5044814;56;1140852;-73
2023/09/14 11:51:24;;;;;;;5.08;1.98;;;;;;;21.56;100.00;101131.48;4939742;57;1140913;-73
2023/09/14 11:56:33;;;;;;;2.98;2.66;;;;;;;21.46;100.00;101132.72;5025586;56;1140809;-74
2023/09/14 12:01:38;;;;;;;2.98;2.08;;;;;;;21.40;100.00;101136.94;4944619;57;1140810;-73
2023/09/14 12:06:44;;;;;;;2.92;2.00;;;;;;;21.39;100.00;101140.12;4963793;58;1141039;-73
2023/09/14 12:11:50;;;;;;;1.65;1.55;;;;;;;21.43;100.00;101140.62;4944391;57;1140948;-74
2023/09/14 12:16:56;;;;;;;2.15;1.95;;;;;;;21.64;100.00;101136.84;4943544;57;1140921;-73
2023/09/14 12:22:01;;;;;;;2.65;1.70;;;;;;;21.75;100.00;101150.41;5013608;56;1140968;-74
2023/09/14 12:27:07;;;;;;;2.80;1.40;;;;;;;21.58;100.00;101146.12;4941059;56;1140782;-73
2023/09/14 12:32:14;;;;;;;4.05;1.87;;;;;;;21.52;100.00;101143.64;5025066;56;1141117;-73
2023/09/14 12:37:22;;;;;;;6.62;1.87;;;;;;;21.53;100.00;101139.09;5042760;56;1140863;-74
2023/09/14 12:42:28;;;;;;;4.08;2.15;;;;;;;21.90;100.00;101147.80;4943135;58;1141097;-74
2023/09/14 12:47:33;;;;;;;1.87;1.70;;;;;;;22.27;100.00;101139.85;4944712;57;1141074;-74
2023/09/14 12:52:39;;;;;;;3.55;1.87;;;;;;;22.64;100.00;101144.92;5118407;56;1141049;-73
2023/09/14 12:57:48;;;;;;;2.20;1.80;;;;;;;22.82;100.00;101137.38;5108813;56;1140930;-73
2023/09/14 13:02:54;;;;;;;3.27;2.60;;;;;;;23.01;100.00;101141.41;5107887;56;1140548;-73
2023/09/14 13:08:03;;;;;;;2.17;1.72;;;;;;;23.15;100.00;101131.13;5065964;56;1140639;-74
2023/09/14 13:13:11;;;;;;;1.70;1.60;;;;;;;22.97;100.00;101127.95;4935317;56;1140892;-74
2023/09/14 13:18:17;;;;;;;5.40;2.08;;;;;;;22.97;100.00;101127.95;5011241;56;1140890;-74
2023/09/14 13:23:23;;;;;;;2.58;2.02;;;;;;;22.96;100.00;101128.97;5029946;57;1140848;-73
2023/09/14 13:28:28;;;;;;;1.80;1.70;;;;;;;23.05;100.00;101137.32;4939664;58;1140965;-74
2023/09/14 13:33:34;;;;;;;2.17;1.90;;;;;;;22.86;100.00;101135.16;4940790;57;1140908;-75
2023/09/14 13:38:39;;;;;;;7.12;2.58;;;;;;;22.85;100.00;101146.96;5032051;57;1140787;-74
2023/09/14 13:43:45;;;;;;;3.13;2.53;;;;;;;22.83;100.00;101140.91;5010622;56;1140917;-73
2023/09/14 13:48:56;;;;;;;7.75;3.00;;;;;;;22.71;100.00;101143.19;4918367;58;1140863;-73
2023/09/14 13:53:58;;;;;;;7.20;4.12;;;;;;;22.52;100.00;101146.38;5015051;57;1140962;-73
2023/09/14 13:59:04;;;;;;;3.12;1.92;;;;;;;22.34;100.00;101139.95;4995671;57;1140847;-73
2023/09/14 14:04:10;;;;;;;2.67;2.25;;;;;;;22.20;100.00;101136.19;4995856;57;1140855;-73
2023/09/14 14:09:17;;;;;;;2.30;1.65;;;;;;;22.44;100.00;101129.28;4977568;57;1140814;-72
2023/09/14 14:14:23;;;;;;;3.42;2.42;;;;;;;22.80;100.00;101125.41;4938415;57;1140725;-72
2023/09/14 14:19:28;;;;;;;4.78;2.10;;;;;;;23.14;100.00;101122.19;4929052;58;1140825;-73
2023/09/14 14:24:35;;;;;;;3.03;2.30;;;;;;;23.33;100.00;101114.05;4897982;59;1141035;-73
2023/09/14 14:29:42;;;;;;;3.17;2.35;;;;;;;23.55;100.00;101120.36;4944603;58;1140817;-73
2023/09/14 14:34:48;;;;;;;7.90;4.00;;;;;;;23.65;100.00;101124.13;4921141;57;1140938;-74
2023/09/14 14:39:55;;;;;;;3.87;2.45;;;;;;;23.80;100.00;101127.12;4966497;56;1141212;-73
2023/09/14 14:45:01;;;;;;;5.17;2.30;;;;;;;23.93;100.00;101130.48;5043107;56;1140879;-72
2023/09/14 14:50:07;;;;;;;2.50;2.15;;;;;;;23.93;88.58;101129.13;4976196;57;1140998;-74
2023/09/14 14:55:13;;;;;;;2.35;2.15;;;;;;;23.97;90.48;101132.30;5020571;56;1138678;-73
2023/09/14 15:00:19;;;;;;;2.10;2.00;;;;;;;23.99;79.20;101132.91;5039756;56;1138996;-73
2023/09/14 15:05:28;;;;;;;2.15;1.95;;;;;;;23.95;76.16;101137.05;5024506;57;1138666;-73
2023/09/14 15:10:34;;;;;;;2.12;1.95;;;;;;;23.97;73.62;101131.78;5099717;55;1138880;-74
2023/09/14 15:15:40;;;;;;;5.14;2.20;;;;;;;23.98;72.20;101143.42;5113686;56;1138858;-74
2023/09/14 15:20:45;;;;;;;2.90;2.40;;;;;;;24.01;71.63;101133.56;5015522;57;1138953;-74
2023/09/14 15:25:56;;;;;;;6.77;2.07;;;;;;;23.90;72.47;101144.37;5162331;55;1138596;-74
2023/09/14 15:31:01;;;;;;;2.52;2.00;;;;;;;23.92;73.18;101142.83;5007881;56;1138824;-74
2023/09/14 15:36:07;;;;;;;5.30;2.05;;;;;;;23.85;73.24;101153.03;4963147;56;1139121;-73
2023/09/14 15:41:15;;;;;;;4.20;2.70;;;;;;;23.80;74.01;101158.70;5074055;56;1138563;-73
2023/09/14 15:46:21;;;;;;;5.28;3.20;;;;;;;23.54;72.10;101163.23;5205415;55;1138978;-73
2023/09/14 15:51:29;;;;;;;5.28;2.58;;;;;;;23.28;72.51;101163.70;5062826;56;1139010;-73
2023/09/14 15:56:33;;;;;;;8.98;2.25;;;;;;;23.08;72.09;101167.44;5015340;57;1138613;-75
2023/09/14 16:01:39;;;;;;;4.20;2.85;;;;;;;22.96;72.74;101178.37;5035567;57;1138797;-73
2023/09/14 16:06:49;;;;;;;6.72;5.62;;;;;;;22.83;73.47;101176.81;5021981;56;1138643;-74
2023/09/14 16:11:53;;;;;;;15.67;9.67;;;;;;;22.73;73.95;101184.30;4975444;55;1138916;-73
2023/09/14 16:17:04;;;;;;;13.55;7.28;;;;;;;22.63;73.92;101181.83;5104856;56;1140759;-72
2023/09/14 16:22:06;;;;;;;12.45;8.45;;;;;;;22.67;74.24;101188.55;5056347;57;1140726;-74
2023/09/14 16:27:12;;;;;;;10.25;3.25;;;;;;;22.76;74.71;101198.27;4959887;57;1140905;-73
2023/09/14 16:32:17;;;;;;;15.95;2.25;;;;;;;22.78;75.82;101198.09;4962047;57;1141025;-74
2023/09/14 16:37:23;;;;;;;30.90;2.98;;;;;;;22.61;79.19;101197.89;5019706;57;1140898;-73
2023/09/14 16:42:28;;;;;;;17.40;2.55;;;;;;;22.47;81.28;101203.53;5025286;56;1140701;-74
2023/09/14 16:47:34;;;;;;;13.27;2.43;;;;;;;22.28;83.33;101207.55;5025873;56;1141032;-73
2023/09/14 16:52:40;;;;;;;5.85;2.12;;;;;;;22.11;84.54;101204.62;4963740;57;1140719;-74
2023/09/14 16:57:49;;;;;;;11.95;2.67;;;;;;;21.99;85.62;101204.20;4942323;57;1138802;-75
2023/09/14 17:02:55;;;;;;;10.95;3.40;;;;;;;21.93;86.59;101207.55;4993335;56;1140767;-73
2023/09/14 17:08:00;;;;;;;18.23;3.67;;;;;;;21.88;87.63;101210.42;5024060;56;1140691;-73
2023/09/14 17:13:07;;;;;;;12.13;4.83;;;;;;;21.80;88.32;101213.17;5019692;55;1140886;-73
2023/09/14 17:18:13;;;;;;;19.87;3.37;;;;;;;21.74;89.20;101211.50;5075831;56;1140774;-73
2023/09/14 17:23:19;;;;;;;13.65;4.53;;;;;;;21.74;89.59;101212.84;5004175;56;1140687;-73
2023/09/14 17:28:25;;;;;;;9.20;3.15;;;;;;;21.79;90.36;101223.61;5039231;56;1140923;-73
2023/09/14 17:33:31;;;;;;;19.17;8.90;;;;;;;21.78;90.79;101226.81;4970447;56;1138629;-74
2023/09/14 17:38:36;;;;;;;32.80;20.60;;;;;;;21.86;91.05;101229.95;5005118;57;1141132;-73
2023/09/14 17:43:42;;;;;;;27.82;16.50;;;;;;;21.90;91.15;101230.79;5025774;57;1142777;-74
2023/09/14 17:48:48;;;;;;;10.55;6.65;;;;;;;21.92;91.00;101231.97;5009863;57;1143282;-72
2023/09/14 17:53:54;;;;;;;9.13;5.92;;;;;;;21.84;91.17;101236.89;5010609;57;1140766;-74
2023/09/14 17:58:59;;;;;;;16.60;9.35;;;;;;;21.79;91.48;101239.77;5030510;57;1138687;-73
2023/09/14 18:04:05;;;;;;;10.23;7.90;;;;;;;21.71;91.79;101242.81;5016718;57;1140769;-73
2023/09/14 18:09:11;;;;;;;17.73;5.78;;;;;;;21.64;92.37;101240.49;5090103;55;1140775;-72
2023/09/14 18:14:16;;;;;;;8.13;4.92;;;;;;;21.60;93.04;101244.54;4940357;57;1141110;-73
2023/09/14 18:19:24;;;;;;;9.48;5.70;;;;;;;21.64;93.51;101259.84;5006643;57;1138591;-74
2023/09/14 18:24:29;;;;;;;16.65;5.30;;;;;;;21.60;93.80;101267.92;5086709;56;1138888;-74
2023/09/14 18:29:37;;;;;;;14.20;5.23;;;;;;;21.60;93.80;101267.92;5065469;56;1140822;-74
2023/09/14 18:34:44;;;;;;;6.20;3.62;;;;;;;21.34;93.84;101270.34;5059418;57;1140967;-74
2023/09/14 18:40:09;;;;;;;11.40;3.33;;;;;;;21.01;94.33;101266.81;5029938;57;1138809;-73
2023/09/14 18:45:15;;;;;;;13.62;4.15;;;;;;;20.95;96.24;101278.73;5010758;57;1140819;-73
2023/09/14 18:50:21;;;;;;;13.25;5.92;;;;;;;21.02;97.07;101283.79;5024012;57;1141048;-74
2023/09/14 18:55:28;;;;;;;18.20;5.47;;;;;;;21.12;97.67;101284.45;4991563;58;1140651;-74
2023/09/14 19:00:35;;;;;;;23.42;7.60;;;;;;;21.22;97.74;101290.55;4996622;57;1141001;-75
2023/09/14 19:05:41;;;;;;;4.53;3.37;;;;;;;21.19;97.00;101297.61;4994531;57;1141008;-76
2023/09/14 19:10:52;;;;;;;9.70;3.77;;;;;;;20.72;97.19;101301.41;4979420;57;1138818;-74
2023/09/14 19:15:58;;;;;;;8.78;3.80;;;;;;;20.33;98.14;101299.27;4987003;57;1138693;-74
2023/09/14 19:21:04;;;;;;;14.35;5.05;;;;;;;20.28;100.00;101299.43;5009730;57;1138959;-74
2023/09/14 19:26:09;;;;;;;11.73;5.25;;;;;;;20.48;100.00;101298.66;4985892;57;1143187;-74
2023/09/14 19:31:16;;;;;;;9.45;4.70;;;;;;;20.64;100.00;101296.84;4964990;57;1143215;-74
2023/09/14 19:36:24;;;;;;;17.50;3.42;;;;;;;20.79;100.00;101308.30;4998920;57;1141079;-74
2023/09/14 19:41:29;;;;;;;18.55;4.17;;;;;;;20.76;100.00;101310.84;4959995;57;1142951;-74
2023/09/14 19:46:36;;;;;;;5.03;2.90;;;;;;;20.74;100.00;101317.38;4999892;57;1142946;-74
2023/09/14 19:51:42;;;;;;;17.12;6.12;;;;;;;20.69;100.00;101308.45;4986345;57;1140993;-76
2023/09/14 19:56:47;;;;;;;89.53;41.43;;;;;;;20.67;100.00;101318.53;5060843;56;1142730;-74
2023/09/14 20:01:54;;;;;;;59.07;28.10;;;;;;;20.62;100.00;101322.23;4925077;57;1145341;-74
2023/09/14 20:07:02;;;;;;;22.95;11.75;;;;;;;20.59;100.00;101323.41;5062107;56;1144930;-74
2023/09/14 20:12:09;;;;;;;11.97;7.03;;;;;;;20.50;100.00;101313.62;4944283;57;1145186;-74
2023/09/14 20:17:18;;;;;;;10.78;5.72;;;;;;;20.50;100.00;101313.62;4999702;57;1142922;-75
2023/09/14 20:22:24;;;;;;;14.75;5.37;;;;;;;20.50;100.00;101325.71;4890219;57;1142928;-74
2023/09/14 20:27:30;;;;;;;8.70;4.17;;;;;;;20.54;100.00;101320.36;4951315;57;1143068;-74
2023/09/14 20:32:39;;;;;;;7.73;4.17;;;;;;;20.50;100.00;101320.84;4996807;56;1140841;-74
2023/09/14 20:37:45;;;;;;;4.78;3.75;;;;;;;20.52;100.00;101319.67;5019744;57;1140696;-75
2023/09/14 20:42:51;;;;;;;7.70;3.87;;;;;;;20.49;100.00;101321.84;5013622;57;1140777;-74
2023/09/14 20:47:57;;;;;;;9.05;3.30;;;;;;;20.40;100.00;101326.86;4872933;58;1140936;-74
2023/09/14 20:53:02;;;;;;;5.37;2.62;;;;;;;20.23;100.00;101329.96;4948169;57;1141071;-74
2023/09/14 20:58:08;;;;;;;5.92;2.42;;;;;;;19.99;100.00;101332.05;4914632;58;1141289;-74
2023/09/14 21:03:14;;;;;;;2.87;2.42;;;;;;;19.89;100.00;101355.47;4943954;57;1141071;-74
2023/09/14 21:08:19;;;;;;;8.83;2.98;;;;;;;19.86;100.00;101353.13;5015702;56;1140924;-74
2023/09/14 21:13:30;;;;;;;6.58;2.92;;;;;;;19.87;100.00;101350.25;4933275;57;1140776;-74
2023/09/14 21:18:36;;;;;;;9.43;2.58;;;;;;;19.87;100.00;101359.65;4909435;58;1140738;-74
2023/09/14 21:23:41;;;;;;;5.47;3.30;;;;;;;19.83;100.00;101365.02;4943893;57;1140788;-74
2023/09/14 21:28:48;;;;;;;5.15;3.10;;;;;;;19.82;100.00;101366.02;4856194;59;1141040;-74
2023/09/14 21:33:54;;;;;;;10.35;3.05;;;;;;;19.76;100.00;101368.48;4929276;57;1141243;-74
2023/09/14 21:39:00;;;;;;;6.90;3.53;;;;;;;19.66;100.00;101366.75;4911556;59;1143191;-74
2023/09/14 21:44:06;;;;;;;10.23;2.75;;;;;;;19.61;100.00;101371.73;4931509;57;1140721;-74
2023/09/14 21:49:19;;;;;;;5.22;2.55;;;;;;;19.53;100.00;101369.01;4917407;57;1143107;-74
2023/09/14 21:54:25;;;;;;;7.08;2.80;;;;;;;19.41;100.00;101382.27;4943314;57;1140791;-74
2023/09/14 21:59:32;;;;;;;3.30;2.20;;;;;;;19.27;100.00;101381.48;4991865;57;1141037;-74
2023/09/14 22:04:38;;;;;;;5.35;2.50;;;;;;;19.15;100.00;101399.65;4952756;57;1141098;-74
2023/09/14 22:09:45;;;;;;;4.20;2.42;;;;;;;19.00;100.00;101399.84;4983148;56;1140955;-74
2023/09/14 22:14:50;;;;;;;8.43;2.47;;;;;;;18.91;100.00;101402.10;4975793;57;1140794;-74
2023/09/14 22:19:56;;;;;;;3.27;2.17;;;;;;;18.78;100.00;101387.73;5012735;57;1140621;-74
2023/09/14 22:25:02;;;;;;;8.28;2.30;;;;;;;18.78;100.00;101387.73;4996492;56;1140675;-74
2023/09/14 22:30:14;;;;;;;8.10;2.47;;;;;;;18.73;100.00;101397.20;4927520;55;1140925;-74
2023/09/14 22:35:18;;;;;;;4.62;2.37;;;;;;;18.64;100.00;101399.45;4877310;59;1140982;-74
2023/09/14 22:40:23;;;;;;;4.00;2.02;;;;;;;18.55;100.00;101411.37;4939691;58;1140838;-74
2023/09/14 22:45:32;;;;;;;4.97;1.98;;;;;;;18.43;100.00;101405.02;4952604;57;1140764;-74
2023/09/14 22:50:41;;;;;;;5.42;2.33;;;;;;;18.39;100.00;101412.50;5019977;57;1141014;-74
2023/09/14 22:55:47;;;;;;;5.05;2.55;;;;;;;18.37;100.00;101417.66;4966258;57;1140978;-74